Terminal Aerodrome Forecast
Issued by NWS Louisville, KY

Home | Current Version | Previous Version | Text Only | Print | Product List | Glossary On
Versions: 1 2 3 4 5 6 7 8 9 10 11 12 13 14 15 16 17
181
FTUS43 KLMK 180520
TAFBWG
TAF
KBWG 180520Z 1806/1906 20004KT P6SM BKN200
     FM181400 20005KT P6SM VCSH OVC050
     FM181900 21007KT P6SM VCSH OVC025
     FM182300 20004KT P6SM OVC050=

USA.gov is the U.S. government's official web portal to all federal, state and local government web resources and services.